Time;durP1;ratioP1;P1;durP2;ratioP2;P2;SDS_P1;SDS_P2;PMS_P1;PMS_P2;Temp;Humidity;BMP_temperature;BMP_pressure;BME280_temperature;BME280_humidity;BME280_pressure;Samples;Min_cycle;Max_cycle;Signal;HPM_P1;HPM_P2
2022/06/09 00:01:43;;;;;;;6.40;2.90;;;14.40;89.40;;;;;;5035724;28;20783;-72
2022/06/09 00:04:15;;;;;;;6.72;2.83;;;14.40;88.50;;;;;;5038178;28;20425;-71
2022/06/09 00:06:47;;;;;;;5.83;3.00;;;14.40;88.10;;;;;;5028574;28;20441;-72
2022/06/09 00:09:17;;;;;;;5.95;2.50;;;14.40;87.70;;;;;;5040558;28;20439;-72
2022/06/09 00:11:51;;;;;;;6.03;2.90;;;14.40;87.80;;;;;;5040305;28;20786;-72
2022/06/09 00:14:19;;;;;;;8.40;3.20;;;14.50;87.70;;;;;;5037123;28;20427;-72
2022/06/09 00:16:46;;;;;;;6.72;3.13;;;14.50;87.80;;;;;;5029676;28;20434;-72
2022/06/09 00:19:14;;;;;;;6.10;2.78;;;14.50;87.20;;;;;;5039331;28;20938;-71
2022/06/09 00:21:41;;;;;;;6.35;2.72;;;14.50;87.40;;;;;;5032882;28;20433;-72
2022/06/09 00:24:08;;;;;;;5.50;2.25;;;14.40;87.60;;;;;;5038884;28;20779;-72
2022/06/09 00:26:36;;;;;;;5.90;2.80;;;14.40;87.80;;;;;;5038081;28;20437;-72
2022/06/09 00:29:05;;;;;;;7.00;2.92;;;14.40;87.30;;;;;;5042113;28;20620;-72
2022/06/09 00:31:32;;;;;;;7.07;3.28;;;14.30;87.80;;;;;;5031522;28;20429;-72
2022/06/09 00:33:59;;;;;;;6.47;3.08;;;14.30;88.10;;;;;;5034875;28;20441;-72
2022/06/09 00:36:26;;;;;;;5.30;3.00;;;14.30;88.10;;;;;;5036523;28;20431;-72
2022/06/09 00:38:53;;;;;;;6.18;2.97;;;14.20;88.40;;;;;;5034200;28;20431;-72
2022/06/09 00:41:20;;;;;;;8.10;2.90;;;14.20;88.50;;;;;;5041579;28;20492;-72
2022/06/09 00:43:48;;;;;;;5.20;2.63;;;14.10;88.70;;;;;;5032394;28;20453;-72
2022/06/09 00:46:20;;;;;;;6.65;3.20;;;14.10;89.10;;;;;;5045450;28;20795;-71
2022/06/09 00:48:50;;;;;;;4.80;2.78;;;14.10;89.10;;;;;;5040779;28;20891;-72
2022/06/09 00:51:30;;;;;;;5.07;2.70;;;14.10;89.50;;;;;;5046689;28;20439;-71
2022/06/09 00:54:02;;;;;;;5.20;2.70;;;14.10;88.60;;;;;;5044834;28;20417;-72
2022/06/09 00:56:29;;;;;;;9.43;3.10;;;14.10;88.60;;;;;;5041980;28;20435;-72
2022/06/09 00:58:57;;;;;;;4.85;3.00;;;14.10;88.50;;;;;;5043148;28;20424;-73
2022/06/09 01:01:25;;;;;;;6.40;3.42;;;14.10;88.40;;;;;;5036596;28;20433;-71
2022/06/09 01:03:55;;;;;;;6.13;3.15;;;14.10;88.40;;;;;;5038039;28;20436;-72
2022/06/09 01:06:25;;;;;;;6.20;2.57;;;14.10;88.00;;;;;;5053563;28;20483;-72
2022/06/09 01:09:07;;;;;;;7.33;2.93;;;14.10;88.20;;;;;;5069849;28;20482;-71
2022/06/09 01:11:34;;;;;;;5.97;2.90;;;14.10;88.70;;;;;;5052079;28;20494;-71
2022/06/09 01:14:04;;;;;;;3.42;2.50;;;14.10;88.20;;;;;;5055356;28;20420;-71
2022/06/09 01:16:46;;;;;;;7.18;3.10;;;14.10;87.90;;;;;;5027337;28;20938;-71
2022/06/09 01:19:43;;;;;;;5.90;2.63;;;14.10;88.00;;;;;;5029591;28;20815;-72
2022/06/09 01:22:30;;;;;;;6.57;2.73;;;14.10;88.10;;;;;;5038858;28;20423;-72
2022/06/09 01:25:18;;;;;;;5.63;2.77;;;14.00;87.80;;;;;;5040823;28;20440;-72
2022/06/09 01:28:10;;;;;;;6.80;2.83;;;14.10;88.10;;;;;;5032810;28;20427;-71
2022/06/09 01:30:44;;;;;;;7.68;2.97;;;14.00;88.10;;;;;;5032957;28;20476;-71
2022/06/09 01:33:18;;;;;;;6.78;3.30;;;14.00;88.30;;;;;;5033941;28;20448;-72
2022/06/09 01:35:51;;;;;;;6.75;3.45;;;14.00;88.00;;;;;;5030631;28;20462;-71
2022/06/09 01:38:18;;;;;;;8.02;3.00;;;14.00;88.40;;;;;;5034208;28;20439;-71
2022/06/09 01:40:45;;;;;;;7.35;3.13;;;14.00;88.00;;;;;;5029974;28;20429;-71
2022/06/09 01:43:12;;;;;;;6.63;2.53;;;14.00;87.80;;;;;;5043004;28;20437;-71
2022/06/09 01:45:49;;;;;;;5.95;2.97;;;14.00;87.70;;;;;;5036029;28;20434;-72
2022/06/09 01:48:18;;;;;;;5.93;2.85;;;14.00;87.50;;;;;;5044254;28;20433;-72
2022/06/09 01:50:48;;;;;;;7.57;2.90;;;13.90;87.80;;;;;;5045437;28;20590;-71
2022/06/09 01:53:20;;;;;;;6.93;3.17;;;14.00;87.80;;;;;;5046781;28;20985;-72
2022/06/09 01:55:50;;;;;;;6.68;2.40;;;13.90;87.70;;;;;;5041948;28;20476;-71
2022/06/09 01:58:23;;;;;;;6.68;2.80;;;13.90;87.90;;;;;;5033676;28;20428;-71
2022/06/09 02:00:53;;;;;;;6.60;2.58;;;13.90;88.10;;;;;;5039959;28;20528;-71
2022/06/09 02:03:24;;;;;;;6.13;2.90;;;13.90;88.00;;;;;;5043415;28;20430;-71
2022/06/09 02:05:53;;;;;;;7.30;2.88;;;13.90;88.20;;;;;;5034766;28;20423;-72
2022/06/09 02:08:23;;;;;;;4.85;2.70;;;13.90;88.00;;;;;;5045067;28;20886;-71
2022/06/09 02:10:55;;;;;;;6.72;3.00;;;13.90;87.80;;;;;;5032809;28;20812;-72
2022/06/09 02:13:26;;;;;;;8.00;2.95;;;13.90;87.70;;;;;;5042447;28;20427;-72
2022/06/09 02:15:59;;;;;;;6.97;2.95;;;13.90;87.70;;;;;;5042132;28;20433;-72
2022/06/09 02:18:28;;;;;;;4.57;2.20;;;13.90;88.00;;;;;;5039968;28;20768;-72
2022/06/09 02:20:58;;;;;;;6.27;2.83;;;13.90;87.90;;;;;;5031419;28;20452;-72
2022/06/09 02:23:26;;;;;;;5.53;2.60;;;13.80;88.10;;;;;;5044576;28;21013;-72
2022/06/09 02:25:52;;;;;;;7.35;2.80;;;13.90;88.10;;;;;;5034726;28;20534;-72
2022/06/09 02:28:19;;;;;;;6.47;3.08;;;13.90;88.00;;;;;;5045612;28;20448;-71
2022/06/09 02:30:47;;;;;;;7.53;3.20;;;13.90;88.20;;;;;;5042871;28;20429;-71
2022/06/09 02:33:16;;;;;;;6.50;3.08;;;13.90;88.30;;;;;;5041299;28;20829;-73
2022/06/09 02:35:43;;;;;;;7.18;3.55;;;13.90;88.20;;;;;;5036469;28;20433;-71
2022/06/09 02:38:10;;;;;;;6.00;3.10;;;13.90;88.10;;;;;;5042953;28;20431;-71
2022/06/09 02:40:36;;;;;;;6.57;3.15;;;13.90;88.30;;;;;;5037883;28;20431;-71
2022/06/09 02:43:03;;;;;;;4.95;2.72;;;13.90;88.20;;;;;;5036475;28;20423;-71
2022/06/09 02:45:31;;;;;;;7.57;2.90;;;13.90;88.30;;;;;;5038101;28;21260;-71
2022/06/09 02:47:57;;;;;;;10.32;3.40;;;13.90;88.30;;;;;;5037766;28;20431;-71
2022/06/09 02:50:26;;;;;;;8.48;3.38;;;13.80;88.30;;;;;;5036540;28;20441;-72
2022/06/09 02:52:53;;;;;;;9.27;3.72;;;13.80;88.50;;;;;;5027946;28;20810;-71
2022/06/09 02:55:20;;;;;;;10.00;4.10;;;13.80;88.50;;;;;;5035444;28;20526;-70
2022/06/09 02:57:46;;;;;;;8.50;3.90;;;13.80;88.90;;;;;;5038539;28;20534;-71
2022/06/09 03:00:15;;;;;;;5.90;3.60;;;13.80;88.60;;;;;;5039720;28;20435;-72
2022/06/09 03:02:42;;;;;;;10.50;4.20;;;13.80;88.50;;;;;;5042067;28;20437;-72
2022/06/09 03:05:10;;;;;;;9.07;3.85;;;13.80;88.80;;;;;;5031078;28;20432;-71
2022/06/09 03:07:38;;;;;;;6.82;3.80;;;13.80;88.90;;;;;;5027936;28;20435;-71
2022/06/09 03:10:05;;;;;;;8.13;4.20;;;13.80;88.90;;;;;;5028429;28;20434;-71
2022/06/09 03:12:32;;;;;;;6.03;3.85;;;13.80;89.10;;;;;;5051184;28;20412;-72
2022/06/09 03:14:59;;;;;;;11.57;4.20;;;13.80;89.40;;;;;;5043954;28;20436;-71
2022/06/09 03:17:27;;;;;;;9.35;4.30;;;13.70;89.50;;;;;;5045097;28;20420;-71
2022/06/09 03:19:54;;;;;;;9.68;3.97;;;13.70;89.90;;;;;;5044754;28;20543;-71
2022/06/09 03:22:22;;;;;;;9.85;4.35;;;13.70;89.90;;;;;;5044583;28;20421;-71
2022/06/09 03:24:50;;;;;;;10.35;4.50;;;13.80;89.90;;;;;;5039186;28;20436;-74
2022/06/09 03:27:17;;;;;;;9.15;4.80;;;13.70;90.10;;;;;;5035362;28;20921;-72
2022/06/09 03:29:43;;;;;;;10.07;5.40;;;13.70;90.20;;;;;;5042918;28;20508;-71
2022/06/09 03:32:10;;;;;;;8.53;5.10;;;13.70;90.30;;;;;;5035525;28;20978;-72
2022/06/09 03:34:37;;;;;;;9.60;5.70;;;13.70;90.40;;;;;;5027941;28;20423;-71
2022/06/09 03:37:04;;;;;;;7.95;5.32;;;13.80;90.60;;;;;;5035983;28;20439;-71
2022/06/09 03:39:31;;;;;;;11.55;6.75;;;13.80;90.60;;;;;;5024369;28;20819;-71
2022/06/09 03:41:59;;;;;;;10.23;6.57;;;13.70;90.80;;;;;;5036846;28;20626;-71
2022/06/09 03:44:26;;;;;;;10.85;6.40;;;13.70;91.20;;;;;;5033416;28;20992;-71
2022/06/09 03:46:54;;;;;;;13.05;6.72;;;13.70;91.20;;;;;;5042132;28;20441;-71
2022/06/09 03:49:21;;;;;;;10.13;6.50;;;13.60;91.40;;;;;;5041825;28;20431;-72
2022/06/09 03:51:48;;;;;;;11.23;6.30;;;13.60;91.50;;;;;;5049947;28;20438;-71
2022/06/09 03:54:15;;;;;;;9.13;6.18;;;13.60;91.50;;;;;;5032043;28;20525;-71
2022/06/09 03:56:42;;;;;;;13.27;6.97;;;13.60;91.50;;;;;;5035320;28;20421;-71
2022/06/09 03:59:12;;;;;;;8.10;6.30;;;13.60;91.50;;;;;;5040666;28;20465;-72
2022/06/09 04:01:39;;;;;;;10.43;6.50;;;13.70;91.50;;;;;;5037497;28;20465;-72
2022/06/09 04:04:06;;;;;;;9.95;7.32;;;13.70;91.30;;;;;;5027504;28;20429;-71
2022/06/09 04:06:34;;;;;;;9.35;6.00;;;13.70;91.30;;;;;;5030827;28;20441;-71
2022/06/09 04:09:01;;;;;;;12.55;6.55;;;13.70;91.20;;;;;;5022689;28;22182;-72
2022/06/09 04:11:28;;;;;;;11.45;6.68;;;13.80;91.20;;;;;;5022701;28;20939;-72
2022/06/09 04:13:55;;;;;;;10.48;6.10;;;13.80;91.10;;;;;;5016131;28;20765;-71
2022/06/09 04:16:26;;;;;;;11.97;7.20;;;13.80;91.20;;;;;;5023957;28;20476;-72
2022/06/09 04:18:53;;;;;;;12.75;6.60;;;13.80;91.10;;;;;;5029151;28;20542;-71
2022/06/09 04:21:21;;;;;;;10.95;6.80;;;13.90;90.90;;;;;;5031986;28;20442;-72
2022/06/09 04:23:48;;;;;;;12.55;7.07;;;13.90;90.90;;;;;;5050981;28;20434;-72
2022/06/09 04:26:18;;;;;;;11.55;7.60;;;14.00;90.70;;;;;;5054039;28;20438;-73
2022/06/09 04:28:46;;;;;;;10.57;7.27;;;14.10;90.50;;;;;;5051475;28;20588;-72
2022/06/09 04:31:13;;;;;;;10.68;7.00;;;14.10;90.50;;;;;;5030781;28;20437;-72
2022/06/09 04:33:42;;;;;;;12.65;7.05;;;14.20;90.20;;;;;;5027067;28;20943;-71
2022/06/09 04:36:10;;;;;;;12.50;7.30;;;14.20;90.20;;;;;;5027462;28;20465;-71
2022/06/09 04:38:38;;;;;;;11.00;6.93;;;14.20;90.20;;;;;;5026788;28;20439;-70
2022/06/09 04:41:09;;;;;;;9.80;6.00;;;14.30;90.30;;;;;;5026277;28;20727;-72
2022/06/09 04:43:36;;;;;;;9.52;6.22;;;14.30;90.10;;;;;;5033813;28;20435;-72
2022/06/09 04:46:04;;;;;;;12.27;6.75;;;14.30;89.90;;;;;;5031796;28;20433;-72
2022/06/09 04:48:31;;;;;;;10.82;6.45;;;14.30;89.30;;;;;;5031271;28;20437;-71
2022/06/09 04:50:59;;;;;;;9.20;6.50;;;14.30;89.90;;;;;;5029621;28;20608;-62
2022/06/09 04:53:26;;;;;;;11.68;6.88;;;14.30;89.90;;;;;;5031617;28;20438;-61
2022/06/09 04:55:53;;;;;;;9.77;6.27;;;14.40;89.60;;;;;;5033909;28;20418;-61
2022/06/09 04:58:20;;;;;;;11.10;6.40;;;14.40;89.80;;;;;;5032696;28;20505;-72
2022/06/09 05:00:47;;;;;;;11.10;6.35;;;14.40;88.90;;;;;;5035013;28;20505;-71
2022/06/09 05:03:14;;;;;;;13.15;7.03;;;14.40;88.40;;;;;;5032540;28;20749;-71
2022/06/09 05:05:46;;;;;;;12.80;6.78;;;14.40;88.10;;;;;;5033516;28;20441;-71
2022/06/09 05:08:14;;;;;;;10.23;6.20;;;14.30;88.80;;;;;;5033749;28;20431;-72
2022/06/09 05:10:42;;;;;;;11.98;6.78;;;14.30;89.10;;;;;;5030589;28;20434;-71
2022/06/09 05:13:10;;;;;;;11.38;6.80;;;14.30;89.40;;;;;;5030217;28;20859;-72
2022/06/09 05:15:39;;;;;;;10.85;6.40;;;14.30;89.20;;;;;;5032298;28;20517;-71
2022/06/09 05:18:06;;;;;;;12.50;6.70;;;14.40;89.30;;;;;;5030129;28;20437;-71
2022/06/09 05:20:33;;;;;;;12.75;6.82;;;14.50;88.80;;;;;;5030672;28;20440;-62
2022/06/09 05:23:00;;;;;;;10.52;6.20;;;14.60;89.20;;;;;;5029381;28;20454;-72
2022/06/09 05:25:28;;;;;;;11.88;7.00;;;14.50;88.40;;;;;;5028458;28;20502;-72
2022/06/09 05:27:55;;;;;;;12.53;7.30;;;14.60;88.10;;;;;;5028683;28;20550;-72
2022/06/09 05:30:24;;;;;;;11.32;6.47;;;14.70;87.80;;;;;;5034529;28;20415;-71
2022/06/09 05:32:52;;;;;;;9.97;6.33;;;14.80;87.40;;;;;;5032756;28;20441;-72
2022/06/09 05:35:21;;;;;;;9.67;6.30;;;14.90;87.50;;;;;;5027318;28;20799;-72
2022/06/09 05:46:06;;;;;;;14.10;6.70;;;14.90;86.20;;;;;;5040978;28;20613;-73
2022/06/09 05:48:33;;;;;;;10.60;7.05;;;15.00;86.80;;;;;;5040605;28;20891;-71
2022/06/09 05:51:01;;;;;;;12.75;6.93;;;14.90;85.60;;;;;;5037344;28;21069;-71
2022/06/09 05:53:28;;;;;;;11.82;7.20;;;14.90;86.00;;;;;;5036413;28;20927;-72
2022/06/09 05:55:56;;;;;;;12.60;6.97;;;14.90;86.50;;;;;;5036379;28;20787;-71
2022/06/09 05:58:23;;;;;;;11.10;6.97;;;14.90;86.50;;;;;;5036784;28;20423;-72
2022/06/09 06:00:50;;;;;;;12.15;7.53;;;14.80;86.80;;;;;;5033970;28;20439;-72
2022/06/09 06:03:17;;;;;;;13.00;7.07;;;14.90;86.90;;;;;;5043588;28;20454;-72
2022/06/09 06:08:29;;;;;;;16.50;7.93;;;14.80;86.30;;;;;;5031299;28;20801;-72
2022/06/09 06:10:57;;;;;;;14.00;8.10;;;14.70;86.60;;;;;;5037596;28;20528;-72
2022/06/09 06:13:24;;;;;;;11.50;8.25;;;14.70;87.10;;;;;;5034776;28;20421;-72
2022/06/09 06:15:51;;;;;;;10.20;7.32;;;14.70;86.90;;;;;;5036065;28;21068;-72
2022/06/09 06:18:17;;;;;;;13.43;7.40;;;14.80;87.30;;;;;;5036828;28;20443;-72
2022/06/09 06:20:44;;;;;;;12.17;8.00;;;14.90;87.20;;;;;;5041521;28;20462;-71
2022/06/09 06:23:11;;;;;;;12.40;7.57;;;14.90;87.20;;;;;;5044070;28;20417;-71
2022/06/09 06:25:38;;;;;;;13.95;7.90;;;15.00;86.20;;;;;;5038848;28;20872;-72
2022/06/09 06:28:07;;;;;;;14.95;7.72;;;15.10;86.20;;;;;;5037798;28;21280;-72
2022/06/09 06:30:34;;;;;;;13.18;7.53;;;15.10;85.90;;;;;;5044571;28;20504;-74
2022/06/09 06:33:01;;;;;;;13.80;7.55;;;15.20;85.30;;;;;;5038221;28;20865;-72
2022/06/09 06:35:28;;;;;;;14.30;7.97;;;15.20;84.70;;;;;;5037667;28;20513;-73
2022/06/09 06:37:55;;;;;;;13.25;7.97;;;15.20;84.10;;;;;;5039703;28;20430;-71
2022/06/09 06:40:22;;;;;;;13.95;8.10;;;15.30;84.60;;;;;;5041475;28;20537;-72
2022/06/09 06:42:49;;;;;;;13.60;8.38;;;15.40;83.70;;;;;;5039508;28;20978;-73
2022/06/09 06:45:17;;;;;;;12.50;7.27;;;15.40;83.70;;;;;;5041001;28;20536;-73
2022/06/09 06:47:44;;;;;;;10.48;7.15;;;15.50;82.60;;;;;;5036719;28;20441;-73
2022/06/09 06:50:12;;;;;;;11.00;7.65;;;15.60;82.50;;;;;;5035966;28;20415;-71
2022/06/09 06:52:40;;;;;;;10.73;7.40;;;15.70;81.00;;;;;;5041759;28;20431;-73
2022/06/09 06:55:11;;;;;;;10.75;6.60;;;15.70;81.20;;;;;;5040036;28;20545;-72
2022/06/09 06:57:38;;;;;;;10.65;6.32;;;15.80;81.00;;;;;;5034497;28;20435;-72
2022/06/09 07:00:07;;;;;;;11.90;6.57;;;15.90;80.60;;;;;;5043639;28;20422;-73
2022/06/09 07:02:36;;;;;;;10.57;6.50;;;15.90;79.30;;;;;;5036966;28;20438;-71
2022/06/09 07:05:03;;;;;;;10.20;6.65;;;15.80;79.80;;;;;;5031403;28;20499;-73
2022/06/09 07:07:30;;;;;;;10.93;6.97;;;15.80;80.30;;;;;;5034287;28;20514;-73
2022/06/09 07:09:57;;;;;;;8.68;6.88;;;15.80;79.10;;;;;;5050357;28;20428;-71
2022/06/09 07:12:24;;;;;;;9.30;6.90;;;15.70;79.70;;;;;;5035589;28;20433;-72
2022/06/09 07:14:51;;;;;;;11.25;6.90;;;15.70;80.30;;;;;;5033292;28;20506;-73
2022/06/09 07:17:18;;;;;;;10.45;6.65;;;15.60;80.50;;;;;;5045787;28;20428;-74
2022/06/09 07:19:46;;;;;;;10.90;6.80;;;15.60;81.00;;;;;;5037757;28;20431;-71
2022/06/09 07:22:13;;;;;;;9.77;7.00;;;15.60;80.40;;;;;;5043679;28;20465;-72
2022/06/09 07:24:41;;;;;;;13.70;7.35;;;15.60;80.30;;;;;;5047412;28;20415;-74
2022/06/09 07:27:08;;;;;;;11.88;7.45;;;15.60;80.80;;;;;;5044958;28;20429;-74
2022/06/09 07:29:34;;;;;;;11.85;7.57;;;15.50;81.60;;;;;;5033809;28;20423;-74
2022/06/09 07:32:02;;;;;;;10.90;7.00;;;15.50;81.40;;;;;;5037372;28;20421;-76
2022/06/09 07:34:28;;;;;;;29.67;26.52;;;15.50;81.50;;;;;;5037822;28;20503;-72
2022/06/09 07:36:57;;;;;;;20.45;14.55;;;15.50;81.40;;;;;;5030714;28;20542;-73
2022/06/09 07:39:24;;;;;;;9.82;7.38;;;15.60;81.10;;;;;;5024299;28;20450;-73
2022/06/09 07:41:52;;;;;;;14.32;8.00;;;15.70;81.50;;;;;;5032453;28;20511;-72
2022/06/09 07:44:19;;;;;;;12.30;7.23;;;15.70;80.60;;;;;;5029324;28;20451;-72
2022/06/09 07:46:46;;;;;;;11.55;7.90;;;15.70;80.70;;;;;;5027411;28;20441;-72
2022/06/09 07:49:13;;;;;;;12.68;7.78;;;15.70;79.90;;;;;;5028833;28;20409;-73
2022/06/09 07:51:40;;;;;;;9.50;7.65;;;15.70;80.10;;;;;;5029372;28;20437;-73
2022/06/09 07:54:08;;;;;;;8.10;7.22;;;15.80;79.70;;;;;;5028199;28;20427;-73
2022/06/09 07:56:35;;;;;;;13.20;7.80;;;15.90;79.10;;;;;;5032273;28;21027;-73
2022/06/09 07:59:06;;;;;;;12.18;7.75;;;15.80;79.50;;;;;;5035007;28;20465;-71
2022/06/09 08:01:33;;;;;;;12.05;7.80;;;15.90;79.20;;;;;;5030579;28;20442;-72
2022/06/09 08:04:00;;;;;;;9.88;6.97;;;16.10;78.40;;;;;;5026575;28;20497;-71
2022/06/09 08:06:28;;;;;;;11.70;7.67;;;16.20;77.50;;;;;;5026930;28;20891;-73
2022/06/09 08:08:56;;;;;;;9.40;7.50;;;16.20;76.60;;;;;;5030973;28;20441;-72
2022/06/09 08:11:26;;;;;;;9.32;8.10;;;16.10;77.30;;;;;;5032689;28;20485;-72
2022/06/09 08:13:53;;;;;;;11.10;8.47;;;16.00;77.70;;;;;;5025919;28;20709;-72
2022/06/09 08:16:20;;;;;;;12.48;7.50;;;16.10;78.20;;;;;;5025456;28;20514;-71
2022/06/09 08:18:47;;;;;;;7.78;6.95;;;16.10;78.10;;;;;;5031798;28;20808;-72
2022/06/09 08:21:14;;;;;;;8.77;7.20;;;16.00;77.70;;;;;;5026451;28;20528;-72
2022/06/09 08:23:41;;;;;;;9.75;7.68;;;16.00;77.80;;;;;;5040186;28;20946;-70
2022/06/09 08:26:08;;;;;;;10.48;7.75;;;16.00;78.30;;;;;;5032042;28;20572;-69
2022/06/09 08:28:36;;;;;;;10.32;7.25;;;16.20;78.00;;;;;;5033768;28;20440;-71
2022/06/09 08:31:03;;;;;;;227.57;206.85;;;16.40;77.10;;;;;;5037665;28;20425;-69
2022/06/09 08:33:30;;;;;;;16.58;14.90;;;16.60;76.60;;;;;;5032015;28;20443;-69
2022/06/09 08:35:58;;;;;;;10.85;7.05;;;16.70;75.70;;;;;;5038268;28;20516;-69
2022/06/09 08:38:25;;;;;;;8.52;7.15;;;16.80;75.30;;;;;;5038742;28;20873;-69
2022/06/09 08:40:57;;;;;;;8.75;6.72;;;16.80;74.50;;;;;;5033544;28;20496;-70
2022/06/09 08:43:34;;;;;;;8.20;6.67;;;16.70;74.40;;;;;;5035959;28;20435;-69
2022/06/09 08:46:08;;;;;;;8.48;7.40;;;16.60;75.30;;;;;;5034279;28;20439;-68
2022/06/09 08:48:40;;;;;;;9.70;7.05;;;16.50;76.30;;;;;;5029824;28;20823;-68
2022/06/09 08:51:12;;;;;;;9.73;7.37;;;16.30;76.70;;;;;;5028674;28;20426;-71
2022/06/09 08:53:42;;;;;;;9.02;7.78;;;16.20;77.40;;;;;;5026315;28;20437;-69
2022/06/09 08:56:16;;;;;;;11.02;7.38;;;16.20;77.50;;;;;;5031370;28;20533;-69
2022/06/09 08:58:48;;;;;;;10.82;6.80;;;16.20;77.90;;;;;;5033045;28;20460;-70
2022/06/09 09:01:22;;;;;;;10.25;7.00;;;16.30;77.30;;;;;;5029767;28;20474;-70
2022/06/09 09:03:53;;;;;;;12.13;7.40;;;16.20;77.20;;;;;;5029286;28;20501;-70
2022/06/09 09:06:26;;;;;;;10.20;7.30;;;16.20;78.00;;;;;;5033643;28;20431;-70
2022/06/09 09:08:59;;;;;;;11.20;7.25;;;16.20;78.20;;;;;;5033675;28;20919;-69
2022/06/09 09:11:42;;;;;;;9.70;6.87;;;16.30;78.10;;;;;;5034073;28;20812;-69
2022/06/09 09:14:15;;;;;;;8.93;6.57;;;16.20;77.10;;;;;;5034697;28;21510;-69
2022/06/09 09:16:51;;;;;;;9.25;6.53;;;16.30;76.80;;;;;;5032404;28;20992;-70
2022/06/09 09:19:25;;;;;;;7.63;6.27;;;16.40;76.40;;;;;;5036219;28;20917;-72
2022/06/09 09:22:01;;;;;;;8.77;6.00;;;16.50;75.30;;;;;;5041289;28;20427;-70
2022/06/09 09:24:39;;;;;;;10.00;6.22;;;16.50;75.00;;;;;;5035048;28;20441;-71
2022/06/09 09:27:17;;;;;;;11.25;6.60;;;16.50;75.30;;;;;;5034897;28;20437;-72
2022/06/09 09:29:47;;;;;;;7.68;5.65;;;16.50;75.50;;;;;;5035993;28;20446;-71
2022/06/09 09:32:20;;;;;;;8.57;6.00;;;16.50;76.10;;;;;;5031872;28;20434;-71
2022/06/09 09:34:49;;;;;;;7.50;5.90;;;16.60;75.90;;;;;;5040605;28;21110;-71
2022/06/09 09:37:26;;;;;;;8.25;5.60;;;16.60;75.00;;;;;;5041058;28;21230;-71
2022/06/09 09:39:58;;;;;;;8.43;6.10;;;16.60;75.40;;;;;;5035317;28;20929;-71
2022/06/09 09:42:27;;;;;;;8.05;6.20;;;16.50;75.10;;;;;;5032685;28;20426;-71
2022/06/09 09:45:05;;;;;;;7.22;5.18;;;16.50;75.00;;;;;;5041221;28;20464;-71
2022/06/09 09:47:45;;;;;;;11.45;5.90;;;16.60;74.20;;;;;;5035648;28;20439;-72
2022/06/09 09:50:22;;;;;;;12.32;5.80;;;16.70;75.20;;;;;;5039467;28;20433;-71
2022/06/09 09:52:57;;;;;;;7.10;5.20;;;17.10;74.20;;;;;;5035745;28;20443;-71
2022/06/09 09:55:29;;;;;;;7.68;5.47;;;17.40;71.00;;;;;;5037179;28;20516;-71
2022/06/09 09:58:17;;;;;;;7.95;5.00;;;17.70;70.60;;;;;;5037871;28;20434;-72
2022/06/09 10:00:45;;;;;;;7.65;4.72;;;18.20;69.00;;;;;;5032849;28;21215;-70
2022/06/09 10:08:55;;;;;;;6.93;4.30;;;18.50;66.90;;;;;;5037610;28;20776;-71
2022/06/09 10:14:28;;;;;;;6.70;3.80;;;18.40;67.40;;;;;;5036088;28;20471;-72
2022/06/09 10:16:56;;;;;;;5.40;4.20;;;18.40;66.50;;;;;;5032397;28;20432;-76
2022/06/09 10:19:30;;;;;;;7.95;4.60;;;18.30;66.40;;;;;;5055980;28;20474;-77
2022/06/09 10:21:59;;;;;;;6.18;3.83;;;18.50;66.30;;;;;;5061535;28;20461;-77
2022/06/09 10:24:33;;;;;;;5.68;3.58;;;18.60;67.40;;;;;;5069036;28;20503;-78
2022/06/09 10:27:01;;;;;;;7.35;4.07;;;18.70;66.20;;;;;;5056039;28;20463;-74
2022/06/09 10:29:36;;;;;;;5.70;3.40;;;18.70;66.00;;;;;;5032602;28;20966;-74
2022/06/09 10:32:06;;;;;;;5.35;4.10;;;18.70;65.20;;;;;;5037439;28;20445;-74
2022/06/09 10:34:43;;;;;;;7.70;4.10;;;18.60;65.60;;;;;;5038087;28;20435;-75
2022/06/09 10:37:19;;;;;;;5.85;3.95;;;18.50;66.90;;;;;;5034686;28;20421;-73
2022/06/09 10:39:53;;;;;;;6.00;3.90;;;18.50;67.50;;;;;;5033958;28;20468;-74
2022/06/09 10:42:34;;;;;;;5.78;3.95;;;18.90;65.80;;;;;;5041966;28;20940;-73
2022/06/09 10:45:19;;;;;;;6.65;3.88;;;19.40;63.50;;;;;;5037179;28;20435;-72
2022/06/09 10:56:24;;;;;;;5.10;3.25;;;20.20;59.70;;;;;;5042708;28;20458;-72
2022/06/09 10:58:57;;;;;;;5.53;3.50;;;20.20;60.40;;;;;;5034474;28;20432;-72
2022/06/09 11:01:33;;;;;;;6.93;3.70;;;20.30;59.20;;;;;;5030123;28;20439;-72
2022/06/09 11:04:02;;;;;;;6.00;3.40;;;20.00;59.30;;;;;;5032170;28;20522;-76
2022/06/09 11:06:46;;;;;;;4.05;3.03;;;19.80;61.10;;;;;;5032267;28;20979;-74
2022/06/09 11:09:25;;;;;;;7.05;3.50;;;19.60;62.00;;;;;;5029715;28;20434;-71
2022/06/09 11:12:10;;;;;;;5.95;3.28;;;19.70;62.20;;;;;;5036213;28;20457;-73
2022/06/09 11:14:49;;;;;;;8.43;3.50;;;19.70;60.80;;;;;;5034039;28;20920;-74
2022/06/09 11:17:47;;;;;;;5.03;2.78;;;19.70;61.60;;;;;;5038618;28;20442;-74
2022/06/09 11:20:24;;;;;;;5.75;3.40;;;19.60;59.30;;;;;;5032930;28;20440;-72
2022/06/09 11:23:03;;;;;;;4.80;2.80;;;19.90;60.30;;;;;;5039732;28;20437;-72
2022/06/09 11:25:51;;;;;;;5.47;2.90;;;20.50;58.90;;;;;;5035263;28;20803;-75
2022/06/09 11:28:34;;;;;;;5.38;2.80;;;21.10;55.70;;;;;;5040866;28;20421;-72
2022/06/09 11:31:17;;;;;;;4.35;2.20;;;21.30;56.10;;;;;;5038549;28;20505;-73
2022/06/09 11:34:04;;;;;;;5.10;2.35;;;21.60;55.50;;;;;;5034286;28;20937;-72
2022/06/09 11:36:37;;;;;;;4.03;2.30;;;21.70;54.50;;;;;;5038352;28;20428;-72
2022/06/09 11:39:22;;;;;;;4.97;2.35;;;21.50;54.00;;;;;;5042573;28;20782;-74
2022/06/09 11:42:00;;;;;;;3.35;2.47;;;21.90;54.20;;;;;;5036335;28;20568;-72
2022/06/09 11:44:29;;;;;;;6.40;2.90;;;22.20;51.40;;;;;;5042064;28;20462;-75
2022/06/09 11:46:59;;;;;;;3.47;2.25;;;22.00;52.10;;;;;;5034225;28;20435;-72
2022/06/09 11:49:33;;;;;;;4.40;2.50;;;21.70;52.40;;;;;;5033949;28;20421;-74
2022/06/09 11:52:03;;;;;;;6.72;4.05;;;21.70;53.10;;;;;;5038341;28;20442;-72
2022/06/09 11:54:41;;;;;;;4.80;3.20;;;21.50;53.90;;;;;;5032543;28;20441;-71
2022/06/09 11:57:26;;;;;;;6.30;2.92;;;21.40;53.70;;;;;;5033718;28;20900;-74
2022/06/09 11:59:58;;;;;;;5.43;2.50;;;21.20;53.10;;;;;;5033570;28;20434;-72
2022/06/09 12:02:51;;;;;;;4.35;2.70;;;21.20;51.40;;;;;;5034187;28;20431;-72
2022/06/09 12:05:24;;;;;;;4.63;2.55;;;21.30;52.10;;;;;;5035180;28;20429;-73
2022/06/09 12:08:20;;;;;;;5.05;2.80;;;21.30;52.70;;;;;;5039736;28;20458;-73
2022/06/09 12:11:12;;;;;;;5.88;2.67;;;21.70;52.70;;;;;;5013533;28;20504;-72
2022/06/09 12:13:56;;;;;;;4.38;2.40;;;22.00;51.00;;;;;;5033909;28;20457;-73
2022/06/09 12:16:26;;;;;;;4.03;2.80;;;22.00;51.10;;;;;;5031578;28;20512;-72
2022/06/09 12:19:17;;;;;;;4.28;2.65;;;22.10;50.60;;;;;;5031450;28;20522;-72
2022/06/09 12:21:47;;;;;;;4.68;2.40;;;22.20;50.60;;;;;;5034878;28;20516;-72
2022/06/09 12:24:27;;;;;;;4.32;2.47;;;22.40;51.60;;;;;;5031229;28;20536;-76
2022/06/09 12:27:01;;;;;;;7.20;3.90;;;22.80;51.00;;;;;;5026500;28;20437;-66
2022/06/09 12:29:43;;;;;;;5.47;2.70;;;22.90;50.00;;;;;;5033757;28;20508;-73
2022/06/09 12:32:39;;;;;;;4.50;3.00;;;22.80;50.40;;;;;;5027388;28;20432;-74
2022/06/09 12:35:19;;;;;;;5.70;3.05;;;22.20;51.10;;;;;;5040553;28;20436;-74
2022/06/09 12:37:53;;;;;;;5.38;3.30;;;21.80;52.40;;;;;;5037435;28;20423;-73
2022/06/09 12:40:23;;;;;;;5.65;3.03;;;21.60;53.90;;;;;;5029214;28;20429;-73
2022/06/09 12:42:55;;;;;;;5.05;3.10;;;21.60;52.00;;;;;;5040456;28;20433;-73
2022/06/09 12:45:25;;;;;;;6.57;3.38;;;21.80;53.90;;;;;;5034734;28;20937;-76
2022/06/09 12:47:54;;;;;;;5.38;3.00;;;21.60;52.00;;;;;;5030646;28;20473;-71
2022/06/09 12:50:28;;;;;;;6.03;2.60;;;21.30;50.70;;;;;;5032847;28;20798;-75
2022/06/09 12:52:55;;;;;;;5.70;3.00;;;21.10;51.70;;;;;;5039662;28;20498;-74
2022/06/09 12:55:28;;;;;;;4.80;2.97;;;21.00;52.90;;;;;;5034972;28;20465;-72
2022/06/09 12:58:03;;;;;;;6.75;3.28;;;21.00;56.00;;;;;;5036600;28;20411;-71
2022/06/09 13:00:34;;;;;;;5.63;2.85;;;21.20;56.10;;;;;;5027714;28;20443;-71
2022/06/09 13:03:01;;;;;;;6.90;3.20;;;21.30;56.90;;;;;;5036541;28;20567;-74
2022/06/09 13:05:33;;;;;;;5.80;2.60;;;21.40;55.60;;;;;;5037876;28;20832;-76
2022/06/09 13:08:03;;;;;;;4.25;2.70;;;21.30;54.70;;;;;;5050603;28;20743;-73
2022/06/09 13:10:33;;;;;;;3.63;3.00;;;21.10;55.70;;;;;;5054093;28;20429;-77
2022/06/09 13:13:04;;;;;;;5.90;3.65;;;20.80;61.20;;;;;;5040360;28;20432;-72
2022/06/09 13:15:37;;;;;;;5.22;3.97;;;20.40;64.60;;;;;;5035448;28;20413;-74
2022/06/09 13:18:13;;;;;;;5.70;3.63;;;19.90;64.20;;;;;;5034874;28;20484;-75
2022/06/09 13:20:45;;;;;;;6.13;3.88;;;19.30;68.60;;;;;;5045464;28;20447;-72
2022/06/09 13:23:14;;;;;;;6.53;3.50;;;18.90;69.50;;;;;;5038642;28;20437;-72
2022/06/09 13:25:42;;;;;;;3.95;2.58;;;18.40;68.60;;;;;;5038085;28;20428;-72
2022/06/09 13:28:28;;;;;;;2.95;2.60;;;18.00;67.90;;;;;;5039215;28;21120;-71
2022/06/09 13:30:57;;;;;;;5.80;2.30;;;17.80;67.40;;;;;;5035993;28;20463;-76